Time;durP1;ratioP1;P1;durP2;ratioP2;P2;SDS_P1;SDS_P2;PMS_P1;PMS_P2;Temp;Humidity;BMP_temperature;BMP_pressure;BME280_temperature;BME280_humidity;BME280_pressure;Samples;Min_cycle;Max_cycle;Signal;HPM_P1;HPM_P2
2022/12/03 00:02:15;;;;;;;12.93;5.90;;;;;;;8.40;87.16;102060.56;4945500;28;20051;-48
2022/12/03 00:04:42;;;;;;;13.05;6.40;;;;;;;8.40;87.28;102061.38;4946084;28;20055;-46
2022/12/03 00:07:09;;;;;;;11.48;5.95;;;;;;;8.43;87.27;102059.97;4944106;28;20429;-46
2022/12/03 00:09:36;;;;;;;10.77;5.70;;;;;;;8.45;87.50;102060.47;4941391;29;20134;-46
2022/12/03 00:12:03;;;;;;;9.13;4.53;;;;;;;8.44;87.67;102056.94;4944759;29;20073;-50
2022/12/03 00:14:29;;;;;;;17.33;6.63;;;;;;;8.45;87.71;102058.56;4941228;29;20137;-45
2022/12/03 00:16:56;;;;;;;10.52;4.80;;;;;;;8.47;87.68;102063.78;4944983;29;20062;-46
2022/12/03 00:19:23;;;;;;;8.85;3.47;;;;;;;8.47;87.68;102056.31;4943404;29;20051;-48
2022/12/03 00:21:50;;;;;;;10.52;4.25;;;;;;;8.46;87.92;102059.38;4944504;29;20134;-45
2022/12/03 00:24:16;;;;;;;6.07;3.67;;;;;;;8.45;88.09;102061.31;4945224;29;20146;-46
2022/12/03 00:26:43;;;;;;;6.60;4.20;;;;;;;8.44;88.16;102059.69;4941619;28;20050;-46
2022/12/03 00:29:10;;;;;;;9.52;5.40;;;;;;;8.44;88.03;102056.09;4953158;28;20047;-52
2022/12/03 00:31:36;;;;;;;9.88;4.18;;;;;;;8.44;88.28;102061.63;4953704;28;20045;-45
2022/12/03 00:34:03;;;;;;;9.40;4.97;;;;;;;8.43;88.21;102055.28;4944788;28;20059;-46
2022/12/03 00:36:30;;;;;;;7.45;3.50;;;;;;;8.41;87.95;102056.69;4945801;29;20043;-47
2022/12/03 00:38:57;;;;;;;8.70;3.25;;;;;;;8.42;87.88;102056.38;4944167;29;20080;-48
2022/12/03 00:41:23;;;;;;;8.95;3.47;;;;;;;8.41;87.83;102057.53;4943308;29;20490;-46
2022/12/03 00:43:50;;;;;;;6.00;2.60;;;;;;;8.42;87.79;102055.56;4944850;29;20562;-48
2022/12/03 00:46:16;;;;;;;7.45;2.67;;;;;;;8.40;87.60;102060.56;4948489;29;20043;-45
2022/12/03 00:48:47;;;;;;;5.60;2.95;;;;;;;8.38;87.58;102052.59;4948849;29;20099;-49
2022/12/03 00:51:13;;;;;;;5.80;3.13;;;;;;;8.38;87.54;102055.34;4947071;29;20057;-47
2022/12/03 00:53:40;;;;;;;8.13;4.28;;;;;;;8.38;87.40;102051.78;4947579;29;20047;-48
2022/12/03 00:56:07;;;;;;;7.22;3.40;;;;;;;8.36;87.37;102049.31;4942885;29;20421;-45
2022/12/03 00:58:34;;;;;;;6.60;3.67;;;;;;;8.36;87.25;102056.78;4948792;29;20138;-45
2022/12/03 01:01:01;;;;;;;4.07;2.97;;;;;;;8.33;87.15;102043.56;4939677;28;20525;-47
2022/12/03 01:03:28;;;;;;;10.50;3.00;;;;;;;8.34;87.02;102050.75;4947593;29;20047;-45
2022/12/03 01:05:54;;;;;;;11.07;4.43;;;;;;;8.34;86.91;102053.50;4947672;29;20057;-46
2022/12/03 01:08:21;;;;;;;5.22;2.80;;;;;;;8.34;86.70;102062.56;4948098;29;20047;-46
2022/12/03 01:10:48;;;;;;;6.00;2.65;;;;;;;8.35;86.83;102063.41;4948811;29;20069;-46
2022/12/03 01:13:14;;;;;;;8.15;3.22;;;;;;;8.34;86.86;102057.06;4929769;29;20462;-49
2022/12/03 01:15:41;;;;;;;7.00;2.97;;;;;;;8.34;86.61;102065.34;4947398;29;20505;-47
2022/12/03 01:18:08;;;;;;;7.57;4.05;;;;;;;8.34;86.63;102062.56;4948553;29;20051;-45
2022/12/03 01:20:35;;;;;;;8.65;3.80;;;;;;;8.34;86.34;102062.56;4948418;28;20058;-47
2022/12/03 01:23:02;;;;;;;7.22;4.57;;;;;;;8.35;86.27;102074.44;4947234;29;20079;-46
2022/12/03 01:25:28;;;;;;;7.70;3.30;;;;;;;8.34;86.26;102067.31;4947345;29;20046;-45
2022/12/03 01:27:55;;;;;;;7.35;3.20;;;;;;;8.34;86.14;102070.84;4948903;29;20077;-45
2022/12/03 01:30:22;;;;;;;7.88;3.70;;;;;;;8.34;85.99;102072.81;4948489;29;20040;-46
2022/12/03 01:32:48;;;;;;;9.20;4.20;;;;;;;8.32;86.02;102070.34;4947442;29;20055;-49
2022/12/03 01:35:15;;;;;;;6.45;3.10;;;;;;;8.33;85.97;102076.69;4948280;29;20054;-45
2022/12/03 01:37:42;;;;;;;4.95;3.05;;;;;;;8.32;85.86;102086.06;4948820;29;20043;-46
2022/12/03 01:40:12;;;;;;;7.97;3.97;;;;;;;8.32;85.94;102086.06;4948322;29;20051;-45
2022/12/03 01:42:40;;;;;;;7.53;2.90;;;;;;;8.32;85.78;102086.06;4947681;29;20054;-46
2022/12/03 01:45:17;;;;;;;7.93;3.60;;;;;;;8.30;85.61;102086.38;4948372;28;20048;-47
2022/12/03 01:47:44;;;;;;;8.23;3.97;;;;;;;8.31;85.57;102087.22;4950942;29;20110;-46
2022/12/03 01:50:19;;;;;;;10.40;4.07;;;;;;;8.31;85.53;102084.44;4952168;29;20047;-46
2022/12/03 01:52:46;;;;;;;9.00;3.75;;;;;;;8.29;85.25;102078.38;4951314;28;20043;-48
2022/12/03 01:55:17;;;;;;;10.95;4.25;;;;;;;8.28;85.45;102082.28;4950259;28;20091;-46
2022/12/03 01:57:52;;;;;;;6.88;4.22;;;;;;;8.27;85.44;102094.41;4951409;28;20058;-46
2022/12/03 02:00:21;;;;;;;7.13;3.58;;;;;;;8.26;85.43;102092.75;4950852;29;20054;-46
2022/12/03 02:03:00;;;;;;;8.77;4.30;;;;;;;8.25;85.44;102096.63;4951028;29;20052;-50
2022/12/03 02:05:31;;;;;;;9.70;4.35;;;;;;;8.23;85.33;102094.19;4951364;29;20094;-46
2022/12/03 02:07:59;;;;;;;9.90;4.07;;;;;;;8.23;85.26;102096.13;4951326;29;20059;-45
2022/12/03 02:10:33;;;;;;;11.13;4.00;;;;;;;8.23;85.33;102096.13;4948667;29;20109;-46
2022/12/03 02:13:06;;;;;;;13.90;5.10;;;;;;;8.21;85.25;102096.38;4948355;29;20682;-46
2022/12/03 02:15:34;;;;;;;12.07;5.13;;;;;;;8.20;85.25;102099.47;4939768;29;20051;-46
2022/12/03 02:18:01;;;;;;;7.38;4.32;;;;;;;8.20;85.28;102093.94;4950238;29;20047;-47
2022/12/03 02:20:32;;;;;;;5.93;4.05;;;;;;;8.20;85.22;102094.78;4942057;29;20073;-46
2022/12/03 02:23:19;;;;;;;8.50;3.55;;;;;;;8.20;85.14;102093.94;4920234;29;20415;-46
2022/12/03 02:25:45;;;;;;;10.77;4.78;;;;;;;8.19;85.38;102095.88;4949121;28;20053;-46
2022/12/03 02:28:12;;;;;;;14.57;5.22;;;;;;;8.17;85.36;102100.88;4951034;29;20422;-48
2022/12/03 02:30:39;;;;;;;9.27;4.10;;;;;;;8.15;85.20;102088.50;4951002;29;20047;-48
2022/12/03 02:33:06;;;;;;;7.75;4.15;;;;;;;8.14;85.34;102092.34;4949946;29;20047;-46
2022/12/03 02:35:34;;;;;;;9.70;4.03;;;;;;;8.14;85.34;102095.13;4914839;29;20056;-47
2022/12/03 02:38:11;;;;;;;7.70;4.53;;;;;;;8.13;85.09;102093.50;4943421;29;20409;-45
2022/12/03 02:40:38;;;;;;;11.25;3.63;;;;;;;8.14;85.09;102092.34;4950594;29;20820;-46
2022/12/03 02:43:05;;;;;;;5.80;3.03;;;;;;;8.12;85.17;102091.84;4949010;29;20062;-46
2022/12/03 02:45:38;;;;;;;6.65;3.42;;;;;;;8.11;85.17;102090.19;4950565;29;20054;-47
2022/12/03 02:48:07;;;;;;;13.75;4.53;;;;;;;8.08;85.08;102083.31;4950698;29;20458;-45
2022/12/03 02:50:38;;;;;;;8.70;3.47;;;;;;;8.07;84.98;102073.44;4946981;29;20541;-46
2022/12/03 02:53:10;;;;;;;10.13;3.73;;;;;;;8.05;84.87;102081.16;4941940;28;20057;-45
2022/12/03 02:55:37;;;;;;;17.48;4.50;;;;;;;8.04;84.84;102079.53;4941141;29;20577;-45
2022/12/03 02:58:05;;;;;;;7.60;4.18;;;;;;;8.01;84.86;102076.53;4948829;29;20131;-46
2022/12/03 03:00:38;;;;;;;8.38;3.92;;;;;;;7.96;84.74;102077.44;4939088;23;20047;-46
2022/12/03 03:03:07;;;;;;;7.10;3.65;;;;;;;7.92;84.80;102079.94;4912430;29;20062;-46
2022/12/03 03:05:36;;;;;;;6.85;3.83;;;;;;;7.87;84.66;102066.22;4925581;29;20147;-46
2022/12/03 03:08:04;;;;;;;10.27;4.20;;;;;;;7.82;84.60;102071.81;4918300;29;20044;-47
2022/12/03 03:10:33;;;;;;;6.72;4.18;;;;;;;7.75;84.53;102071.34;4920686;29;20047;-46
2022/12/03 03:13:03;;;;;;;6.68;3.25;;;;;;;7.71;84.38;102070.28;4924850;29;20056;-48
2022/12/03 03:15:29;;;;;;;8.30;4.20;;;;;;;7.66;84.49;102075.84;4930273;29;20056;-46
2022/12/03 03:17:56;;;;;;;7.38;3.13;;;;;;;7.61;84.24;102059.38;4916637;29;20050;-47
2022/12/03 03:20:23;;;;;;;6.18;3.38;;;;;;;7.57;84.46;102060.28;4912691;29;20048;-48
2022/12/03 03:22:49;;;;;;;11.48;3.97;;;;;;;7.53;84.44;102067.47;4923807;29;20047;-45
2022/12/03 03:25:20;;;;;;;6.40;3.92;;;;;;;7.46;84.43;102056.81;4920413;29;20074;-45
2022/12/03 03:27:46;;;;;;;8.48;2.85;;;;;;;7.44;84.27;102053.50;4930075;29;20055;-47
2022/12/03 03:30:14;;;;;;;8.10;2.95;;;;;;;7.41;84.40;102059.63;4917883;29;20260;-47
2022/12/03 03:32:41;;;;;;;7.85;3.55;;;;;;;7.41;84.28;102053.28;4920814;29;20402;-45
2022/12/03 03:35:09;;;;;;;5.90;2.15;;;;;;;7.39;84.35;102059.06;4916028;29;20410;-46
2022/12/03 03:37:37;;;;;;;4.50;2.28;;;;;;;7.39;84.03;102055.53;4930110;29;20442;-46
2022/12/03 03:40:06;;;;;;;3.80;2.47;;;;;;;7.39;83.90;102056.31;4915358;29;20498;-47
2022/12/03 03:42:33;;;;;;;4.80;2.55;;;;;;;7.38;83.64;102054.69;4929524;29;20043;-46
2022/12/03 03:45:00;;;;;;;4.53;2.65;;;;;;;7.38;83.64;102053.88;4923369;29;20533;-45
2022/12/03 03:47:26;;;;;;;4.75;2.25;;;;;;;7.36;83.45;102051.38;4929504;29;20110;-45
2022/12/03 03:49:53;;;;;;;5.63;2.55;;;;;;;7.35;83.44;102061.59;4916126;29;20311;-47
2022/12/03 03:52:20;;;;;;;3.25;1.92;;;;;;;7.31;83.21;102054.19;4913720;29;20032;-45
2022/12/03 03:54:47;;;;;;;3.72;2.30;;;;;;;7.28;83.05;102060.31;4886597;29;20050;-46
2022/12/03 03:57:13;;;;;;;5.05;2.13;;;;;;;7.24;82.87;102059.25;4912734;29;20048;-45
2022/12/03 03:59:40;;;;;;;3.35;2.55;;;;;;;7.20;82.83;102056.22;4915081;29;20040;-49
2022/12/03 04:02:19;;;;;;;4.22;2.30;;;;;;;7.15;82.67;102052.72;4385374;29;15100889;-46
2022/12/03 04:04:47;;;;;;;4.05;2.33;;;;;;;7.13;82.57;102058.53;4918652;29;20047;-52
2022/12/03 04:07:15;;;;;;;7.32;2.58;;;;;;;7.09;82.35;102046.47;4929881;29;20054;-49
2022/12/03 04:09:41;;;;;;;8.55;2.88;;;;;;;7.05;82.31;102044.53;4915677;29;20047;-46
2022/12/03 04:14:55;;;;;;;8.10;3.13;;;;;;;6.99;82.17;102043.78;4930127;29;20541;-47
2022/12/03 04:17:21;;;;;;;5.65;2.40;;;;;;;6.97;82.01;102045.19;4930257;29;20058;-45
2022/12/03 04:19:48;;;;;;;4.35;2.30;;;;;;;6.94;81.95;102040.25;4918634;29;20135;-47
2022/12/03 04:30:32;;;;;;;4.68;2.15;;;;;;;6.89;81.54;102030.09;4911666;29;20040;-46
2022/12/03 04:35:44;;;;;;;3.50;2.20;;;;;;;6.94;81.37;102026.47;4911159;29;20052;-45
2022/12/03 04:38:13;;;;;;;4.13;2.13;;;;;;;6.98;81.34;102013.78;4908231;29;20447;-46
2022/12/03 04:43:27;;;;;;;7.88;3.40;;;;;;;7.08;81.12;102032.97;4906461;29;20501;-46
2022/12/03 04:45:53;;;;;;;7.20;2.20;;;;;;;7.11;80.94;102024.13;4913668;29;20501;-45
2022/12/03 04:48:20;;;;;;;3.75;2.28;;;;;;;7.12;80.64;102029.31;4908624;29;20282;-45
2022/12/03 04:50:47;;;;;;;6.32;2.42;;;;;;;7.16;80.61;102021.31;4907022;29;20522;-48
2022/12/03 04:53:14;;;;;;;2.97;2.20;;;;;;;7.18;80.50;102022.66;4908846;29;20048;-46
2022/12/03 04:55:40;;;;;;;2.92;2.05;;;;;;;7.20;80.28;102016.88;4909389;29;20104;-45
2022/12/03 04:58:08;;;;;;;7.13;2.35;;;;;;;7.24;80.32;102020.69;4912155;29;20103;-46
2022/12/03 05:00:34;;;;;;;4.88;2.83;;;;;;;7.25;80.16;102017.63;4921366;29;20143;-45
2022/12/03 05:03:01;;;;;;;6.78;2.33;;;;;;;7.27;80.11;102020.94;4908537;29;20052;-47
2022/12/03 05:05:28;;;;;;;4.95;3.05;;;;;;;7.27;80.03;102020.94;4914743;29;20075;-45
2022/12/03 05:07:54;;;;;;;4.35;1.95;;;;;;;7.27;79.92;102025.59;4910761;29;20522;-46
2022/12/03 05:10:24;;;;;;;4.40;2.50;;;;;;;7.27;79.85;102012.66;4913674;29;20693;-45
2022/12/03 05:12:51;;;;;;;6.50;2.28;;;;;;;7.27;79.83;102023.69;4908731;29;20112;-46
2022/12/03 05:15:17;;;;;;;4.82;2.58;;;;;;;7.28;79.68;102010.72;4914128;29;20494;-45
2022/12/03 05:17:44;;;;;;;4.05;2.53;;;;;;;7.26;79.65;102013.75;4907445;29;20468;-45
2022/12/03 05:22:57;;;;;;;7.55;2.47;;;;;;;7.27;79.42;102003.56;4917745;29;20043;-49
2022/12/03 05:25:23;;;;;;;4.55;2.70;;;;;;;7.27;79.48;102009.91;4914016;29;20052;-46
2022/12/03 05:27:50;;;;;;;4.03;2.17;;;;;;;7.27;79.29;102004.41;4916509;29;20054;-45
2022/12/03 05:30:16;;;;;;;8.45;3.47;;;;;;;7.29;79.35;102006.84;4912983;29;20051;-45
2022/12/03 05:32:43;;;;;;;5.93;2.70;;;;;;;7.32;79.40;102000.75;4919411;29;20047;-46
2022/12/03 05:35:10;;;;;;;3.65;2.47;;;;;;;7.31;79.27;101994.41;4915668;29;20055;-45
2022/12/03 05:37:36;;;;;;;4.35;2.80;;;;;;;7.33;79.25;102002.41;4925682;29;20048;-48
2022/12/03 05:40:04;;;;;;;7.50;3.88;;;;;;;7.33;79.03;101992.19;4916106;29;20098;-45
2022/12/03 05:45:17;;;;;;;4.95;2.70;;;;;;;7.33;78.98;101974.88;4912144;29;20052;-52
2022/12/03 05:47:44;;;;;;;5.55;3.33;;;;;;;7.32;79.01;101974.03;4913681;29;20415;-45
2022/12/03 05:50:11;;;;;;;6.40;2.70;;;;;;;7.33;79.01;101980.38;4925250;29;20498;-46
2022/12/03 05:52:37;;;;;;;7.00;3.42;;;;;;;7.33;79.09;101977.63;4923256;29;20051;-46
2022/12/03 05:55:05;;;;;;;6.20;3.10;;;;;;;7.34;78.92;101968.22;4920669;29;20477;-45
2022/12/03 05:57:32;;;;;;;5.05;2.75;;;;;;;7.34;79.01;101968.22;4916037;29;20131;-47
2022/12/03 05:59:58;;;;;;;6.25;2.78;;;;;;;7.35;79.01;101967.13;4910827;29;20056;-46
2022/12/03 06:02:25;;;;;;;5.68;2.90;;;;;;;7.36;79.03;101963.22;4912637;29;20059;-48
2022/12/03 06:04:52;;;;;;;4.93;3.28;;;;;;;7.37;78.97;101959.38;4915859;29;20449;-45
2022/12/03 06:07:19;;;;;;;8.45;3.08;;;;;;;7.41;79.06;101967.88;4919559;29;20067;-46
2022/12/03 06:09:46;;;;;;;6.05;2.90;;;;;;;7.40;79.10;101964.28;4919942;29;20055;-47
2022/12/03 06:12:12;;;;;;;5.18;3.13;;;;;;;7.40;79.15;101972.56;4925120;29;20498;-47
2022/12/03 06:14:39;;;;;;;5.45;2.83;;;;;;;7.40;79.13;101957.97;4916253;29;20051;-46
2022/12/03 06:17:06;;;;;;;7.85;3.30;;;;;;;7.41;79.09;101959.63;4910458;29;20130;-48
2022/12/03 06:19:33;;;;;;;8.05;3.13;;;;;;;7.42;79.02;101958.47;4896551;29;20052;-46
2022/12/03 06:22:00;;;;;;;4.40;2.38;;;;;;;7.42;79.00;101962.06;4923392;29;20044;-45
2022/12/03 06:24:26;;;;;;;5.90;2.60;;;;;;;7.42;79.05;101959.31;4915493;29;20044;-46
2022/12/03 06:26:53;;;;;;;3.75;2.78;;;;;;;7.43;79.01;101963.72;4900347;29;20518;-49
2022/12/03 06:29:20;;;;;;;4.72;2.30;;;;;;;7.45;79.07;101964.22;4914187;29;20051;-47
2022/12/03 06:31:46;;;;;;;7.38;2.95;;;;;;;7.45;79.02;101961.47;4916342;29;20138;-46
2022/12/03 06:34:13;;;;;;;7.70;3.40;;;;;;;7.45;78.91;101950.44;4917154;29;20056;-46
2022/12/03 06:36:40;;;;;;;5.35;2.92;;;;;;;7.46;79.08;101946.59;4916072;29;20055;-52
2022/12/03 06:39:06;;;;;;;5.30;2.97;;;;;;;7.47;79.13;101952.91;4917421;29;20481;-47
2022/12/03 06:41:33;;;;;;;6.80;2.83;;;;;;;7.46;79.19;101949.34;4914210;29;20088;-45
2022/12/03 06:44:00;;;;;;;8.02;4.63;;;;;;;7.45;79.14;101942.19;4916628;29;20040;-52
2022/12/03 06:46:26;;;;;;;6.38;3.35;;;;;;;7.48;79.14;101949.03;4896575;29;20133;-47
2022/12/03 06:48:53;;;;;;;5.80;2.35;;;;;;;7.47;79.22;101950.97;4927985;29;20048;-46
2022/12/03 06:51:20;;;;;;;8.45;4.00;;;;;;;7.47;79.25;101939.94;4928180;29;20411;-48
2022/12/03 06:53:46;;;;;;;10.95;2.95;;;;;;;7.48;79.08;101944.34;4914738;29;20040;-46
2022/12/03 06:56:13;;;;;;;9.55;3.47;;;;;;;7.48;79.37;101936.09;4917782;29;20493;-48
2022/12/03 06:58:43;;;;;;;7.97;4.15;;;;;;;7.46;79.23;101941.09;4913517;29;21860;-46
2022/12/03 07:01:10;;;;;;;8.88;3.03;;;;;;;7.47;79.33;101939.13;4917481;29;20052;-47
2022/12/03 07:03:36;;;;;;;7.18;2.30;;;;;;;7.46;79.34;101945.78;4915159;29;20127;-45
2022/12/03 07:06:03;;;;;;;6.50;2.28;;;;;;;7.46;79.41;101943.00;4916246;29;20063;-46
2022/12/03 07:08:30;;;;;;;4.25;2.58;;;;;;;7.43;79.38;101936.16;4916537;29;20043;-50
2022/12/03 07:10:56;;;;;;;4.55;2.50;;;;;;;7.42;79.33;101937.25;4917828;29;20103;-49
2022/12/03 07:13:23;;;;;;;4.65;2.63;;;;;;;7.43;79.40;101936.16;4924396;29;20050;-45
2022/12/03 07:15:50;;;;;;;8.13;2.42;;;;;;;7.42;79.45;101942.78;4919205;29;20111;-47
2022/12/03 07:18:16;;;;;;;10.45;3.20;;;;;;;7.43;79.33;101946.34;4916402;29;20134;-46
2022/12/03 07:20:43;;;;;;;3.47;1.90;;;;;;;7.42;79.45;101940.03;4921464;29;20052;-46
2022/12/03 07:23:10;;;;;;;5.88;4.00;;;;;;;7.40;79.36;101936.75;4928123;29;20083;-47
2022/12/03 07:25:36;;;;;;;5.88;1.83;;;;;;;7.41;79.27;101948.59;4920903;29;20054;-46
2022/12/03 07:28:03;;;;;;;2.20;1.50;;;;;;;7.41;79.15;101948.59;4911383;29;20495;-49
2022/12/03 07:30:30;;;;;;;4.22;2.17;;;;;;;7.40;79.11;101941.44;4915181;29;20048;-46
2022/12/03 07:32:56;;;;;;;4.40;1.80;;;;;;;7.42;79.17;101939.19;4914162;29;20052;-46
2022/12/03 07:35:23;;;;;;;3.65;1.83;;;;;;;7.42;78.95;101945.53;4911715;29;20051;-46
2022/12/03 07:37:50;;;;;;;7.10;2.33;;;;;;;7.42;78.89;101945.53;4910433;29;20119;-46
2022/12/03 07:40:16;;;;;;;5.57;1.67;;;;;;;7.41;78.95;101943.91;4915002;29;20056;-48
2022/12/03 07:42:43;;;;;;;5.05;2.38;;;;;;;7.42;78.78;101945.53;4916091;29;20051;-46
2022/12/03 07:45:10;;;;;;;2.28;1.52;;;;;;;7.41;78.81;101937.56;4912711;29;20048;-49
2022/12/03 07:47:36;;;;;;;2.90;1.50;;;;;;;7.41;78.92;101943.91;4914884;29;20103;-48
2022/12/03 07:50:03;;;;;;;5.93;1.95;;;;;;;7.41;78.74;101938.41;4910144;29;20063;-46
2022/12/03 07:52:30;;;;;;;4.88;1.88;;;;;;;7.41;78.73;101932.06;4920452;29;20048;-45
2022/12/03 07:54:57;;;;;;;4.30;2.10;;;;;;;7.40;78.48;101941.44;4910256;29;20062;-48
2022/12/03 07:57:23;;;;;;;3.97;1.75;;;;;;;7.40;78.27;101939.50;4913122;29;20059;-49
2022/12/03 07:59:50;;;;;;;3.03;1.63;;;;;;;7.42;78.37;101942.78;4924693;29;20526;-45
2022/12/03 08:02:16;;;;;;;3.88;1.75;;;;;;;7.42;78.17;101941.94;4909408;29;20063;-45
2022/12/03 08:04:47;;;;;;;4.47;1.73;;;;;;;7.43;78.14;101941.66;4915475;29;20059;-54
2022/12/03 08:07:14;;;;;;;6.05;1.40;;;;;;;7.43;78.26;101938.91;4900830;29;20561;-46
2022/12/03 08:09:41;;;;;;;6.15;1.45;;;;;;;7.43;78.16;101935.34;4927177;29;20051;-45
2022/12/03 08:12:18;;;;;;;6.07;1.98;;;;;;;7.42;78.09;101931.75;4918616;29;20460;-46
2022/12/03 08:14:45;;;;;;;5.97;2.03;;;;;;;7.42;78.05;101931.75;4911485;29;20116;-45
2022/12/03 08:17:13;;;;;;;2.88;1.35;;;;;;;7.42;77.95;101934.50;4914587;29;20040;-46
2022/12/03 08:19:45;;;;;;;4.28;1.83;;;;;;;7.42;77.94;101933.69;4910869;29;20578;-46
2022/12/03 08:22:13;;;;;;;4.35;1.42;;;;;;;7.40;78.00;101931.22;4890637;29;20051;-48
2022/12/03 08:24:42;;;;;;;4.60;1.58;;;;;;;7.42;77.88;101928.16;4896112;29;20051;-45
2022/12/03 08:27:18;;;;;;;10.15;1.95;;;;;;;7.41;77.62;101932.06;4917804;29;20048;-46
2022/12/03 08:29:45;;;;;;;2.13;1.63;;;;;;;7.41;77.53;101927.38;4913830;29;20459;-48
2022/12/03 08:32:12;;;;;;;2.88;1.50;;;;;;;7.40;77.49;101927.66;4910693;29;20048;-45
2022/12/03 08:34:43;;;;;;;2.90;1.35;;;;;;;7.40;77.49;101934.00;4910227;29;20044;-50
2022/12/03 08:37:15;;;;;;;4.35;1.60;;;;;;;7.40;77.49;101934.00;4917230;29;20058;-45
2022/12/03 08:39:49;;;;;;;3.63;1.40;;;;;;;7.38;77.41;101922.47;4903503;29;20059;-45
2022/12/03 08:42:40;;;;;;;2.03;1.08;;;;;;;7.40;77.42;101934.00;4912114;29;20652;-45
2022/12/03 08:45:26;;;;;;;4.78;1.45;;;;;;;7.41;77.28;101932.06;4912858;29;20044;-45
2022/12/03 08:48:17;;;;;;;5.60;1.02;;;;;;;7.41;77.43;101932.06;4909392;29;20135;-48
2022/12/03 08:50:44;;;;;;;9.20;1.75;;;;;;;7.41;77.32;101934.81;4916662;29;20062;-45
2022/12/03 08:53:22;;;;;;;2.75;1.52;;;;;;;7.41;77.38;101924.63;4915466;29;20070;-49
2022/12/03 08:55:54;;;;;;;9.00;1.77;;;;;;;7.41;77.48;101926.56;4914243;29;20641;-48
2022/12/03 08:58:27;;;;;;;5.82;1.58;;;;;;;7.42;77.33;101915.22;4922052;29;20066;-45
2022/12/03 09:01:28;;;;;;;6.38;3.13;;;;;;;7.42;77.15;101917.97;4933474;29;20082;-45
2022/12/03 09:04:01;;;;;;;14.77;4.45;;;;;;;7.43;77.32;101916.88;4897011;29;20056;-46
2022/12/03 09:06:27;;;;;;;;;;;;;;;7.42;77.23;101915.22;4924621;29;20044;-46
2022/12/03 09:08:54;;;;;;;1.98;1.25;;;;;;;7.42;77.44;101908.88;4933125;29;20297;-45
2022/12/03 09:11:21;;;;;;;3.95;1.42;;;;;;;7.43;77.35;101911.38;4926023;29;20490;-48
2022/12/03 09:13:48;;;;;;;5.75;2.10;;;;;;;7.46;77.42;101909.94;4928691;29;20056;-45
2022/12/03 09:16:14;;;;;;;3.15;1.50;;;;;;;7.44;77.38;101910.22;4920550;29;20081;-45
2022/12/03 09:18:41;;;;;;;2.35;1.27;;;;;;;7.47;77.50;101920.66;4914349;29;20529;-45
2022/12/03 09:21:08;;;;;;;4.00;1.13;;;;;;;7.49;77.35;101907.44;4922396;29;20494;-46
2022/12/03 09:23:34;;;;;;;7.03;2.15;;;;;;;7.53;77.36;101913.16;4927888;29;20055;-45
2022/12/03 09:26:01;;;;;;;2.47;1.40;;;;;;;7.56;77.45;101913.38;4923584;29;20615;-46
2022/12/03 09:28:28;;;;;;;3.08;1.30;;;;;;;7.59;77.30;101911.97;4933519;29;20054;-44
2022/12/03 09:30:54;;;;;;;12.65;2.63;;;;;;;7.62;77.52;101905.88;4922877;29;20066;-46
2022/12/03 09:33:21;;;;;;;5.97;1.70;;;;;;;7.64;77.39;101909.97;4928698;29;20054;-46
2022/12/03 09:35:48;;;;;;;2.42;2.08;;;;;;;7.68;77.35;101899.97;4925797;29;20150;-44
2022/12/03 09:38:15;;;;;;;2.90;1.77;;;;;;;7.71;77.32;101910.41;4932932;29;20060;-47
2022/12/03 09:40:44;;;;;;;2.72;2.08;;;;;;;7.72;77.45;101902.97;4923881;29;20052;-50
2022/12/03 09:43:11;;;;;;;3.72;1.65;;;;;;;7.71;77.48;101898.56;4902861;29;20064;-46
2022/12/03 09:45:38;;;;;;;2.90;1.67;;;;;;;7.69;77.48;101906.31;4911482;29;20047;-46
2022/12/03 09:48:05;;;;;;;6.60;1.50;;;;;;;7.67;77.54;101897.53;4915199;29;20058;-48
2022/12/03 09:50:31;;;;;;;4.68;1.95;;;;;;;7.68;77.75;101899.97;4914332;29;20048;-46
2022/12/03 09:53:02;;;;;;;6.13;1.95;;;;;;;7.67;77.62;101906.63;4914246;29;20054;-45
2022/12/03 09:55:29;;;;;;;5.07;1.70;;;;;;;7.63;77.65;101900.06;4926567;29;20083;-45
2022/12/03 09:57:56;;;;;;;4.40;2.08;;;;;;;7.59;77.67;101901.78;4923091;29;20040;-46
2022/12/03 10:00:26;;;;;;;6.28;1.98;;;;;;;7.51;77.66;101904.38;4914662;29;20054;-45
2022/12/03 10:02:57;;;;;;;;;;;;;;;7.46;77.87;101898.94;4917114;29;20056;-49
2022/12/03 10:05:24;;;;;;;5.57;2.53;;;;;;;7.39;77.70;101899.28;4927130;29;20570;-46
2022/12/03 10:07:51;;;;;;;4.28;2.55;;;;;;;7.28;77.99;101901.34;4914280;29;20459;-45
2022/12/03 10:10:23;;;;;;;6.65;2.00;;;;;;;7.23;78.04;101903.34;4924905;29;20459;-49
2022/12/03 10:12:51;;;;;;;5.60;2.00;;;;;;;7.19;78.20;101897.63;4915204;29;20048;-47
2022/12/03 10:15:22;;;;;;;3.92;2.13;;;;;;;7.16;78.18;101900.97;4923882;29;20447;-46
2022/12/03 10:17:52;;;;;;;5.50;2.70;;;;;;;7.17;78.21;101899.88;4914382;29;20052;-49
2022/12/03 10:20:21;;;;;;;4.85;1.65;;;;;;;7.20;78.26;101910.25;4929327;29;20084;-46
2022/12/03 10:22:48;;;;;;;4.22;1.63;;;;;;;7.23;77.99;101895.09;4911902;29;20055;-46
2022/12/03 10:25:20;;;;;;;7.95;2.42;;;;;;;7.25;78.06;101898.38;4915626;29;20394;-48
2022/12/03 10:27:58;;;;;;;;;;;;;;;7.27;77.83;101887.88;4914830;29;20426;-46
2022/12/03 10:30:27;;;;;;;2.40;1.15;;;;;;;7.29;77.79;101900.25;4909690;29;19929;-44
2022/12/03 10:32:56;;;;;;;1.92;1.50;;;;;;;7.29;77.64;101886.47;4914303;29;20052;-45
2022/12/03 10:35:34;;;;;;;7.03;2.70;;;;;;;7.34;77.70;101889.16;4912575;29;20059;-47
2022/12/03 10:38:04;;;;;;;8.02;3.55;;;;;;;7.41;77.80;101893.50;4899105;29;20044;-45
2022/12/03 10:40:36;;;;;;;10.82;2.10;;;;;;;7.44;77.74;101887.41;4896086;29;20418;-45
2022/12/03 10:43:18;;;;;;;2.50;1.60;;;;;;;7.48;77.72;101889.25;4909512;29;20054;-45
2022/12/03 10:45:57;;;;;;;3.03;1.50;;;;;;;7.50;77.61;101889.78;4912962;29;20056;-47
2022/12/03 10:48:29;;;;;;;4.93;1.83;;;;;;;7.50;77.65;101878.75;4925754;29;20048;-46
2022/12/03 10:51:03;;;;;;;4.20;1.70;;;;;;;7.49;77.50;101879.88;4916151;29;20068;-48
2022/12/03 10:53:33;;;;;;;6.65;2.00;;;;;;;7.50;77.65;101866.91;4904628;29;20056;-50
2022/12/03 10:56:03;;;;;;;3.00;2.13;;;;;;;7.52;77.72;101861.94;4878143;29;20488;-46
2022/12/03 10:58:34;;;;;;;6.75;1.83;;;;;;;7.55;77.50;101862.13;4908710;29;20041;-46
2022/12/03 11:01:09;;;;;;;4.55;1.85;;;;;;;7.59;77.81;101854.94;4911891;29;20087;-45
2022/12/03 11:03:36;;;;;;;3.22;1.63;;;;;;;7.62;77.72;101856.25;4908627;29;20064;-51
2022/12/03 11:06:03;;;;;;;5.75;2.17;;;;;;;7.67;77.71;101848.75;4913512;29;20040;-45
2022/12/03 11:08:35;;;;;;;2.72;2.08;;;;;;;7.72;77.48;101854.16;4917908;29;20073;-47
2022/12/03 11:11:16;;;;;;;11.52;1.80;;;;;;;7.76;77.40;101852.44;4889663;29;20044;-46
2022/12/03 11:13:46;;;;;;;7.28;2.17;;;;;;;7.83;77.15;101855.66;4911781;29;20103;-47
2022/12/03 11:16:53;;;;;;;2.22;1.35;;;;;;;7.86;77.00;101854.25;4912940;29;20060;-48
2022/12/03 11:19:35;;;;;;;7.75;2.20;;;;;;;7.88;76.95;101843.72;4900586;29;20060;-45
2022/12/03 11:22:05;;;;;;;6.10;2.15;;;;;;;7.87;77.08;101842.91;4909786;29;20556;-44
2022/12/03 11:24:37;;;;;;;5.82;1.70;;;;;;;7.87;76.90;101837.38;4905498;29;20058;-43
2022/12/03 11:27:06;;;;;;;4.80;2.78;;;;;;;7.89;77.00;101831.56;4910686;29;20083;-46
2022/12/03 11:29:57;;;;;;;4.00;1.63;;;;;;;7.90;76.93;101839.53;4914363;29;20047;-45
2022/12/03 11:32:42;;;;;;;2.13;1.08;;;;;;;7.89;76.56;101823.28;4912219;29;20036;-45
2022/12/03 11:35:24;;;;;;;3.97;1.17;;;;;;;7.89;76.35;101815.84;4919098;29;20052;-46
2022/12/03 11:37:51;;;;;;;5.63;0.98;;;;;;;7.90;76.21;101816.66;4913080;29;20055;-49
2022/12/03 11:40:18;;;;;;;3.47;1.38;;;;;;;7.89;75.99;101813.09;4923417;29;20078;-46
2022/12/03 11:42:47;;;;;;;1.13;0.65;;;;;;;7.92;75.96;101811.66;4916176;29;20123;-43
2022/12/03 11:45:28;;;;;;;4.30;1.55;;;;;;;7.92;75.72;101806.97;4922711;29;20058;-45
2022/12/03 11:47:58;;;;;;;1.73;1.05;;;;;;;7.97;75.51;101804.13;4902017;29;20040;-45
2022/12/03 11:50:33;;;;;;;2.70;0.80;;;;;;;8.04;75.32;101808.44;4918147;29;20056;-49
2022/12/03 11:53:25;;;;;;;1.65;0.98;;;;;;;8.07;75.07;101805.06;4914287;29;20048;-43
2022/12/03 11:56:09;;;;;;;2.03;0.85;;;;;;;8.10;74.88;101787.94;4917651;29;20062;-44
2022/12/03 11:58:38;;;;;;;5.45;1.55;;;;;;;8.15;74.65;101793.34;4925975;29;20056;-46
2022/12/03 12:01:06;;;;;;;3.97;0.90;;;;;;;8.23;74.60;101789.91;4913278;29;20495;-44
2022/12/03 12:03:40;;;;;;;4.13;0.90;;;;;;;8.32;74.41;101774.28;4910534;29;20068;-49
2022/12/03 12:06:12;;;;;;;3.13;0.90;;;;;;;8.38;74.01;101778.59;4904810;29;20055;-56